Time;durP1;ratioP1;P1;durP2;ratioP2;P2;SDS_P1;SDS_P2;PMS_P1;PMS_P2;Temp;Humidity;BMP_temperature;BMP_pressure;BME280_temperature;BME280_humidity;BME280_pressure;Samples;Min_cycle;Max_cycle;Signal;HPM_P1;HPM_P2
2022/10/11 00:02:26;;;;;;;;;;;;;;;18.77;62.83;101304.41;2307030;76;51556;-78
2022/10/11 00:05:28;;;;;;;;;;;;;;;18.76;62.69;101306.77;2329306;76;51430;-78
2022/10/11 00:08:29;;;;;;;;;;;;;;;18.75;62.73;101323.33;2307410;76;50294;-78
2022/10/11 00:11:31;;;;;;;;;;;;;;;18.79;62.58;101320.66;2307288;76;51126;-79
2022/10/11 00:14:33;;;;;;;;;;;;;;;18.84;62.51;101326.87;2307450;76;51484;-79
2022/10/11 00:17:34;;;;;;;;;;;;;;;18.79;62.46;101334.06;2329713;76;50705;-78
2022/10/11 00:20:36;;;;;;;;;;;;;;;18.77;62.72;101340.09;2329987;76;51412;-78
2022/10/11 00:23:37;;;;;;;;;;;;;;;18.75;62.72;101339.89;2282369;76;51865;-79
2022/10/11 00:26:39;;;;;;;;;;;;;;;18.81;62.51;101344.12;2358188;74;50715;-79
2022/10/11 00:29:41;;;;;;;;;;;;;;;18.83;62.49;101354.67;2356016;75;50718;-79
2022/10/11 00:32:42;;;;;;;;;;;;;;;18.80;62.60;101364.39;2379858;75;51443;-78
2022/10/11 00:35:44;;;;;;;;;;;;;;;18.81;62.53;101363.41;2383814;74;50109;-78
2022/10/11 00:38:45;;;;;;;;;;;;;;;18.80;62.54;101373.78;2378843;75;51542;-78
2022/10/11 00:41:48;;;;;;;;;;;;;;;18.77;62.97;101375.45;2380314;75;51578;-78
2022/10/11 00:44:49;;;;;;;;;;;;;;;18.77;62.96;101372.77;2379757;75;50678;-78
2022/10/11 00:47:52;;;;;;;;;;;;;;;18.73;63.00;101373.59;2383449;74;51396;-78
2022/10/11 00:50:54;;;;;;;;;;;;;;;18.72;63.09;101383.95;2379979;75;51523;-78
2022/10/11 00:53:56;;;;;;;;;;;;;;;18.74;63.03;101385.14;2379704;75;51594;-78
2022/10/11 00:56:58;;;;;;;;;;;;;;;18.77;62.78;101385.67;2391058;73;51563;-79
2022/10/11 01:00:00;;;;;;;;;;;;;;;18.76;62.64;101388.53;2378551;74;49615;-78
2022/10/11 01:03:02;;;;;;;;;;;;;;;18.74;62.98;101394.02;2398819;74;50376;-79
2022/10/11 01:06:03;;;;;;;;;;;;;;;18.76;63.02;101396.07;2398251;74;50722;-78
2022/10/11 01:09:05;;;;;;;;;;;;;;;18.79;63.08;101394.91;2377805;74;50105;-78
2022/10/11 01:12:08;;;;;;;;;;;;;;;18.79;63.23;101400.27;2398805;74;50742;-78
2022/10/11 01:15:14;;;;;;;;;;;;;;;18.76;63.16;101408.14;2398090;74;50809;-78
2022/10/11 01:18:17;;;;;;;;;;;;;;;18.79;63.14;101413.16;2398861;74;50777;-78
2022/10/11 01:21:23;;;;;;;;;;;;;;;18.82;62.92;101416.84;2398090;74;50781;-78
2022/10/11 01:24:42;;;;;;;;;;;;;;;18.81;63.11;101419.20;2331743;73;51860;-79
2022/10/11 01:27:45;;;;;;;;;;;;;;;18.79;63.06;101421.20;2396031;73;50453;-78
2022/10/11 01:30:47;;;;;;;;;;;;;;;18.79;63.06;101426.56;2380944;73;50782;-78
2022/10/11 01:33:50;;;;;;;;;;;;;;;18.79;63.07;101435.95;2394750;73;50436;-79
2022/10/11 01:36:53;;;;;;;;;;;;;;;18.81;63.05;101431.78;2398971;74;50374;-79
2022/10/11 01:39:56;;;;;;;;;;;;;;;18.81;63.17;101443.34;2374941;74;50417;-78
2022/10/11 01:42:58;;;;;;;;;;;;;;;18.80;62.98;101443.48;2395018;74;50801;-78
2022/10/11 01:45:59;;;;;;;;;;;;;;;18.81;62.92;101443.34;2399067;74;50384;-78
2022/10/11 01:49:01;;;;;;;;;;;;;;;18.78;63.00;101449.03;2378203;74;51011;-79
2022/10/11 01:52:04;;;;;;;;;;;;;;;18.74;63.35;101446.30;2399160;73;50400;-78
2022/10/11 01:55:10;;;;;;;;;;;;;;;18.71;63.47;101444.78;2399046;74;51489;-78
2022/10/11 01:58:13;;;;;;;;;;;;;;;18.74;63.27;101451.66;2398834;74;51509;-78
2022/10/11 02:01:25;;;;;;;;;;;;;;;18.74;63.30;101450.83;2372778;74;49573;-78
2022/10/11 02:04:29;;;;;;;;;;;;;;;18.78;63.32;101453.53;2389564;74;50806;-78
2022/10/11 02:07:38;;;;;;;;;;;;;;;18.73;63.48;101456.70;2384960;74;50275;-78
2022/10/11 02:10:41;;;;;;;;;;;;;;;18.71;63.29;101460.04;2385995;74;50436;-78
2022/10/11 02:13:46;;;;;;;;;;;;;;;18.71;63.36;101464.06;2352303;74;50254;-78
2022/10/11 02:16:50;;;;;;;;;;;;;;;18.75;63.33;101464.08;2385702;74;51566;-78
2022/10/11 02:19:51;;;;;;;;;;;;;;;18.79;63.14;101469.47;2382304;74;51573;-78
2022/10/11 02:22:55;;;;;;;;;;;;;;;18.81;63.04;101472.00;2385948;74;50421;-78
2022/10/11 02:25:56;;;;;;;;;;;;;;;18.81;62.95;101475.51;2352168;74;51740;-79
2022/10/11 02:29:00;;;;;;;;;;;;;;;18.79;62.97;101474.83;2385983;74;50737;-78
2022/10/11 02:32:01;;;;;;;;;;;;;;;18.77;63.17;101474.14;2386043;74;51494;-79
2022/10/11 02:35:03;;;;;;;;;;;;;;;18.72;63.49;101481.30;2398757;74;51549;-78
2022/10/11 02:38:12;;;;;;;;;;;;;;;18.70;63.50;101479.78;2377980;74;51041;-79
2022/10/11 02:41:15;;;;;;;;;;;;;;;18.68;63.32;101479.14;2398595;74;51534;-78
2022/10/11 02:44:19;;;;;;;;;;;;;;;18.65;63.49;101487.48;2394589;74;52592;-78
2022/10/11 02:47:20;;;;;;;;;;;;;;;18.66;63.53;101484.64;2397892;74;50757;-78
2022/10/11 02:50:22;;;;;;;;;;;;;;;18.69;63.26;101480.80;2377725;74;50068;-79
2022/10/11 02:53:24;;;;;;;;;;;;;;;18.68;63.20;101482.66;2377814;74;51535;-79
2022/10/11 02:56:25;;;;;;;;;;;;;;;18.69;63.41;101484.83;2398538;74;50787;-79
2022/10/11 02:59:27;;;;;;;;;;;;;;;18.67;63.67;101487.66;2396094;74;50749;-78
2022/10/11 03:02:28;;;;;;;;;;;;;;;18.67;63.91;101493.02;2364870;74;51032;-78
2022/10/11 03:05:34;;;;;;;;;;;;;;;18.68;63.90;101497.91;2347387;75;50798;-78
2022/10/11 03:08:33;;;;;;;;;;;;;;;18.66;63.69;101500.73;2346978;75;22517;-78
2022/10/11 03:11:35;;;;;;;;;;;;;;;18.70;63.42;101506.12;2370084;75;50169;-78
2022/10/11 03:14:36;;;;;;;;;;;;;;;18.69;63.40;101514.31;2369978;75;50773;-78
2022/10/11 03:17:38;;;;;;;;;;;;;;;18.69;63.26;101514.31;2375733;73;52466;-78
2022/10/11 03:20:39;;;;;;;;;;;;;;;18.69;63.61;101525.87;2368371;74;50745;-78
2022/10/11 03:23:41;;;;;;;;;;;;;;;18.75;63.18;101528.90;2391524;74;51678;-78
2022/10/11 03:26:43;;;;;;;;;;;;;;;18.78;63.13;101530.81;2373721;74;50612;-79
2022/10/11 03:29:44;;;;;;;;;;;;;;;18.76;63.25;101533.31;2389537;73;51603;-79
2022/10/11 03:32:46;;;;;;;;;;;;;;;18.71;63.30;101534.59;2374446;74;51546;-78
2022/10/11 03:35:47;;;;;;;;;;;;;;;18.76;63.15;101547.55;2379519;74;50369;-78
2022/10/11 03:38:49;;;;;;;;;;;;;;;18.76;63.09;101555.59;2356175;75;49647;-78
2022/10/11 03:41:51;;;;;;;;;;;;;;;18.78;63.07;101553.59;2379668;75;50359;-79
2022/10/11 03:44:52;;;;;;;;;;;;;;;18.74;63.28;101554.88;2379601;75;50615;-78
2022/10/11 03:47:54;;;;;;;;;;;;;;;18.71;63.42;101553.87;2379805;75;50230;-79
2022/10/11 03:50:55;;;;;;;;;;;;;;;18.74;63.51;101558.06;2356479;75;50055;-78
2022/10/11 03:53:57;;;;;;;;;;;;;;;18.77;63.24;101565.81;2379841;75;51470;-78
2022/10/11 03:56:59;;;;;;;;;;;;;;;18.78;63.01;101565.66;2379871;75;50312;-78
2022/10/11 04:00:00;;;;;;;;;;;;;;;18.79;63.07;101563.81;2347170;74;50748;-78
2022/10/11 04:03:04;;;;;;;;;;;;;;;18.79;63.02;101568.67;2343493;75;52691;-77
2022/10/11 04:06:06;;;;;;;;;;;;;;;18.81;62.97;101569.36;2369509;75;50889;-77
2022/10/11 04:09:08;;;;;;;;;;;;;;;18.79;62.97;101576.72;2346931;75;50447;-77
2022/10/11 04:12:10;;;;;;;;;;;;;;;18.82;62.98;101580.41;2369685;75;50077;-77
2022/10/11 04:15:14;;;;;;;;;;;;;;;18.81;62.92;101594.83;2346507;75;49580;-77
2022/10/11 04:18:15;;;;;;;;;;;;;;;18.79;62.96;101598.16;2320823;75;50079;-77
2022/10/11 04:21:17;;;;;;;;;;;;;;;18.76;63.08;101599.84;2369771;75;50395;-77
2022/10/11 04:24:18;;;;;;;;;;;;;;;18.77;62.91;101593.97;2346818;75;50487;-77
2022/10/11 04:27:20;;;;;;;;;;;;;;;18.70;63.57;101602.63;2346813;75;50055;-77
2022/10/11 04:30:22;;;;;;;;;;;;;;;18.66;63.65;101595.89;2377321;74;50383;-78
2022/10/11 04:33:23;;;;;;;;;;;;;;;18.66;63.69;101605.28;2399073;74;50736;-79
2022/10/11 04:36:25;;;;;;;;;;;;;;;18.68;63.60;101607.81;2399255;73;50790;-77
2022/10/11 04:39:27;;;;;;;;;;;;;;;18.67;63.74;101613.65;2350707;74;49635;-77
2022/10/11 04:42:28;;;;;;;;;;;;;;;18.68;63.69;101617.20;2398628;74;50387;-77
2022/10/11 04:45:30;;;;;;;;;;;;;;;18.67;63.31;101614.98;2399124;74;50657;-77
2022/10/11 04:48:32;;;;;;;;;;;;;;;18.73;63.36;101624.26;2381593;74;50367;-77
2022/10/11 04:51:34;;;;;;;;;;;;;;;18.69;63.14;101624.23;2350680;74;49601;-75
2022/10/11 04:54:35;;;;;;;;;;;;;;;18.70;63.29;101619.19;2377396;74;50665;-75
2022/10/11 04:57:37;;;;;;;;;;;;;;;18.69;62.85;101624.23;2398661;74;51560;-75
2022/10/11 05:00:38;;;;;;;;;;;;;;;18.73;62.95;101626.94;2369057;75;51573;-75
2022/10/11 05:03:40;;;;;;;;;;;;;;;18.76;62.99;101629.33;2339007;74;52730;-74
2022/10/11 05:06:41;;;;;;;;;;;;;;;18.72;62.82;101635.97;2372904;74;51519;-75
2022/10/11 05:09:43;;;;;;;;;;;;;;;18.74;63.10;101644.69;2390999;74;50376;-75
2022/10/11 05:12:45;;;;;;;;;;;;;;;18.74;62.75;101656.76;2390930;74;50388;-75
2022/10/11 05:15:46;;;;;;;;;;;;;;;18.71;62.78;101653.06;2390835;74;50295;-74
2022/10/11 05:18:48;;;;;;;;;;;;;;;18.76;60.62;101650.78;2372663;74;50268;-76
2022/10/11 05:21:49;;;;;;;;;;;;;;;18.75;61.66;101654.91;2390854;74;50363;-76
2022/10/11 05:24:51;;;;;;;;;;;;;;;18.74;61.50;101659.44;2390503;74;50752;-76
2022/10/11 05:27:53;;;;;;;;;;;;;;;18.66;61.06;101666.11;2372232;74;52633;-76
2022/10/11 05:30:54;;;;;;;;;;;;;;;18.63;61.17;101665.09;2372553;74;51549;-77
2022/10/11 05:33:56;;;;;;;;;;;;;;;18.61;61.16;101672.44;2393237;74;51613;-76
2022/10/11 05:36:57;;;;;;;;;;;;;;;18.58;61.17;101676.28;2377279;74;53526;-76
2022/10/11 05:39:59;;;;;;;;;;;;;;;18.62;61.16;101680.30;2350157;74;50264;-76
2022/10/11 05:43:03;;;;;;;;;;;;;;;18.64;61.26;101688.20;2377508;74;51550;-77
2022/10/11 05:46:05;;;;;;;;;;;;;;;18.76;61.02;101697.70;2398010;74;50735;-77
2022/10/11 05:49:06;;;;;;;;;;;;;;;18.80;60.91;101693.68;2377495;74;50034;-76
2022/10/11 05:52:09;;;;;;;;;;;;;;;18.84;60.94;101692.88;2350045;74;48930;-75
2022/10/11 05:55:11;;;;;;;;;;;;;;;18.80;61.29;101691.50;2389572;73;51552;-73
2022/10/11 05:58:13;;;;;;;;;;;;;;;18.79;61.64;101693.86;2385192;74;51587;-77
2022/10/11 06:01:18;;;;;;;;;;;;;;;18.80;61.44;101692.34;2384722;74;51683;-74
2022/10/11 06:04:20;;;;;;;;;;;;;;;18.74;61.74;101702.84;2384445;74;50775;-76
2022/10/11 06:07:21;;;;;;;;;;;;;;;18.76;61.61;101716.47;2319601;73;52611;-76
2022/10/11 06:10:23;;;;;;;;;;;;;;;18.73;61.77;101715.41;2386082;74;51561;-75
2022/10/11 06:13:25;;;;;;;;;;;;;;;18.70;61.89;101718.38;2374183;73;50440;-77
2022/10/11 06:16:26;;;;;;;;;;;;;;;18.70;62.10;101723.75;2366593;74;50336;-76
2022/10/11 06:19:28;;;;;;;;;;;;;;;18.66;62.19;101728.59;2372419;74;49469;-74
2022/10/11 06:22:29;;;;;;;;;;;;;;;18.66;62.24;101729.10;2372404;74;50392;-77
2022/10/11 06:25:31;;;;;;;;;;;;;;;18.66;61.95;101731.78;2390621;74;50746;-76
2022/10/11 06:28:33;;;;;;;;;;;;;;;18.71;61.89;101738.34;2372174;74;50661;-77
2022/10/11 06:31:34;;;;;;;;;;;;;;;18.71;61.67;101737.52;2372372;74;51605;-77
2022/10/11 06:34:36;;;;;;;;;;;;;;;18.74;61.48;101747.08;2372162;74;50788;-76
2022/10/11 06:37:37;;;;;;;;;;;;;;;18.74;61.25;101753.28;2365801;74;51534;-76
2022/10/11 06:40:39;;;;;;;;;;;;;;;18.74;61.15;101745.23;2384530;74;50796;-76
2022/10/11 06:43:41;;;;;;;;;;;;;;;18.75;61.51;101750.96;2349221;74;51045;-76
2022/10/11 06:46:42;;;;;;;;;;;;;;;18.77;61.63;101751.66;2358335;75;51666;-79
2022/10/11 06:49:44;;;;;;;;;;;;;;;18.84;61.69;101759.92;2379639;75;51467;-79
2022/10/11 06:52:46;;;;;;;;;;;;;;;18.86;61.50;101766.81;2380214;75;51420;-79
2022/10/11 06:55:48;;;;;;;;;;;;;;;18.88;61.54;101770.18;2384375;74;51127;-79
2022/10/11 06:58:54;;;;;;;;;;;;;;;18.88;61.51;101776.02;2380628;74;50745;-79
2022/10/11 07:01:52;;;;;;;;;;;;;;;18.86;61.57;101777.53;2380740;74;22252;-79
2022/10/11 07:04:54;;;;;;;;;;;;;;;18.89;61.58;101782.58;2381218;75;50781;-81
2022/10/11 07:07:58;;;;;;;;;;;;;;;18.94;61.47;101783.45;2371374;75;50119;-80
2022/10/11 07:11:00;;;;;;;;;;;;;;;18.96;61.41;101788.64;2381382;75;22461;-80
2022/10/11 07:14:07;;;;;;;;;;;;;;;18.96;61.36;101786.83;2354842;74;50681;-81
2022/10/11 07:17:06;;;;;;;;;;;;;;;19.00;61.32;101799.41;2375827;74;21661;-81
2022/10/11 07:20:08;;;;;;;;;;;;;;;19.00;61.24;101794.05;2357397;75;50140;-81
2022/10/11 07:23:09;;;;;;;;;;;;;;;19.02;61.22;101802.28;2357823;75;49488;-81
2022/10/11 07:26:11;;;;;;;;;;;;;;;19.02;61.14;101805.47;2375312;74;50075;-81
2022/10/11 07:29:13;;;;;;;;;;;;;;;19.01;61.15;101814.49;2381271;75;50740;-81
2022/10/11 07:32:15;;;;;;;;;;;;;;;19.01;61.11;101815.36;2385077;74;50052;-81
2022/10/11 07:35:16;;;;;;;;;;;;;;;19.04;61.04;101818.22;2380747;74;51244;-80
2022/10/11 07:38:18;;;;;;;;;;;;;;;19.04;61.00;101823.59;2380813;75;50427;-81
2022/10/11 07:41:20;;;;;;;;;;;;;;;19.04;60.90;101823.59;2381037;75;50735;-80
2022/10/11 07:44:21;;;;;;;;;;;;;;;19.04;60.89;101831.64;2396325;73;50879;-80
2022/10/11 07:47:23;;;;;;;;;;;;;;;19.02;60.86;101825.58;2400681;74;50787;-81
2022/10/11 07:50:24;;;;;;;;;;;;;;;19.03;60.81;101842.84;2400567;73;50717;-81
2022/10/11 07:53:26;;;;;;;;;;;;;;;19.02;60.78;101836.31;2400372;74;50678;-79
2022/10/11 07:56:28;;;;;;;;;;;;;;;19.01;60.74;101844.00;2362127;73;50418;-80
2022/10/11 07:59:29;;;;;;;;;;;;;;;19.01;60.72;101839.97;2344104;75;50160;-80
2022/10/11 08:02:31;;;;;;;;;;;;;;;19.01;60.65;101842.66;2372233;75;50652;-81
2022/10/11 08:05:33;;;;;;;;;;;;;;;19.01;60.60;101837.29;2371752;75;50781;-79
2022/10/11 08:08:34;;;;;;;;;;;;;;;19.02;60.47;101847.88;2347724;75;50891;-79
2022/10/11 08:11:36;;;;;;;;;;;;;;;18.99;60.52;101843.34;2347825;75;50560;-79
2022/10/11 08:14:40;;;;;;;;;;;;;;;18.96;60.56;101846.30;2370671;75;50408;-79
2022/10/11 08:17:41;;;;;;;;;;;;;;;18.94;60.57;101847.83;2348609;75;22518;-79
2022/10/11 08:20:43;;;;;;;;;;;;;;;18.95;60.52;101856.70;2347513;75;50931;-79
2022/10/11 08:23:44;;;;;;;;;;;;;;;18.93;60.61;101855.03;2370288;75;51510;-79
2022/10/11 08:26:46;;;;;;;;;;;;;;;18.93;60.60;101856.38;2381586;74;51498;-78
2022/10/11 08:29:47;;;;;;;;;;;;;;;18.91;60.62;101858.36;2394955;74;51629;-79
2022/10/11 08:32:49;;;;;;;;;;;;;;;18.92;60.67;101856.02;2377964;74;52706;-79
2022/10/11 08:35:51;;;;;;;;;;;;;;;18.95;60.66;101860.73;2398387;74;50298;-79
2022/10/11 08:38:52;;;;;;;;;;;;;;;18.96;60.63;101854.35;2378195;74;50597;-79
2022/10/11 08:41:54;;;;;;;;;;;;;;;18.96;60.57;101857.03;2377800;74;51526;-79
2022/10/11 08:44:57;;;;;;;;;;;;;;;18.93;60.63;101859.05;2377791;74;51805;-79
2022/10/11 08:48:03;;;;;;;;;;;;;;;18.92;60.56;101860.54;2398992;74;50434;-79
2022/10/11 08:51:06;;;;;;;;;;;;;;;18.93;60.60;101868.45;2397273;74;51779;-79
2022/10/11 08:54:26;;;;;;;;;;;;;;;18.89;60.61;101872.42;2397598;74;50476;-79
2022/10/11 08:57:28;;;;;;;;;;;;;;;18.91;60.63;101868.25;2376865;74;50822;-79
2022/10/11 09:00:31;;;;;;;;;;;;;;;18.90;60.60;101868.73;2385675;74;50301;-79
2022/10/11 09:03:39;;;;;;;;;;;;;;;18.91;60.63;101869.09;2352576;74;51435;-79
2022/10/11 09:06:48;;;;;;;;;;;;;;;18.93;60.55;101873.81;2385625;74;51681;-79
2022/10/11 09:09:51;;;;;;;;;;;;;;;18.92;60.51;101870.77;2352226;74;50095;-79
2022/10/11 09:12:54;;;;;;;;;;;;;;;18.92;60.50;101882.00;2346400;74;50457;-78
2022/10/11 09:16:04;;;;;;;;;;;;;;;18.91;60.50;101886.52;2328646;76;50531;-76
2022/10/11 09:19:24;;;;;;;;;;;;;;;18.92;60.85;101878.81;2328407;76;50795;-78
2022/10/11 09:22:27;;;;;;;;;;;;;;;18.96;60.90;101881.17;2306423;76;51868;-76
2022/10/11 09:25:35;;;;;;;;;;;;;;;18.96;60.81;101883.86;2360872;74;50743;-76
2022/10/11 09:28:40;;;;;;;;;;;;;;;18.92;60.96;101877.97;2377554;74;50765;-76
2022/10/11 09:31:44;;;;;;;;;;;;;;;18.92;60.84;101882.83;2375739;74;51550;-75
2022/10/11 09:34:45;;;;;;;;;;;;;;;18.90;60.92;101878.12;2354064;74;52569;-74
2022/10/11 09:38:03;;;;;;;;;;;;;;;18.89;61.01;101887.67;2383852;73;50750;-74
2022/10/11 09:41:15;;;;;;;;;;;;;;;18.86;61.10;101890.17;2378325;74;50757;-75
2022/10/11 09:44:25;;;;;;;;;;;;;;;18.82;61.15;101882.58;2377007;74;51489;-75
2022/10/11 09:47:27;;;;;;;;;;;;;;;18.81;61.14;101883.08;2354620;75;51409;-76
2022/10/11 09:50:29;;;;;;;;;;;;;;;18.84;61.09;101880.09;2378411;75;51578;-75
2022/10/11 09:53:49;;;;;;;;;;;;;;;18.93;61.36;101878.30;2378377;75;51605;-75
2022/10/11 09:56:51;;;;;;;;;;;;;;;18.98;61.06;101877.84;2377857;74;51645;-75
2022/10/11 10:00:11;;;;;;;;;;;;;;;18.99;60.79;101878.20;2356194;75;51030;-76
2022/10/11 10:03:12;;;;;;;;;;;;;;;18.99;60.90;101878.20;2378992;75;50470;-75
2022/10/11 10:06:23;;;;;;;;;;;;;;;18.99;60.76;101883.57;2385966;74;50332;-75
2022/10/11 10:09:29;;;;;;;;;;;;;;;18.96;60.81;101877.15;2386322;74;50439;-75
2022/10/11 10:12:30;;;;;;;;;;;;;;;18.99;60.61;101888.43;2353065;74;49603;-75
2022/10/11 10:15:35;;;;;;;;;;;;;;;18.97;60.60;101885.56;2353115;74;50677;-75
2022/10/11 10:18:39;;;;;;;;;;;;;;;18.97;60.52;101886.40;2386263;73;50782;-75
2022/10/11 10:21:44;;;;;;;;;;;;;;;18.97;60.48;101886.40;2364691;74;51560;-75
2022/10/11 10:24:46;;;;;;;;;;;;;;;18.97;60.53;101890.92;2352986;74;51020;-75
2022/10/11 10:27:50;;;;;;;;;;;;;;;18.97;60.47;101892.27;2375885;74;51538;-75
2022/10/11 10:30:55;;;;;;;;;;;;;;;18.95;60.41;101887.55;2332722;76;51592;-76
2022/10/11 10:33:56;;;;;;;;;;;;;;;18.97;60.36;101894.45;2335689;76;51787;-76
2022/10/11 10:37:03;;;;;;;;;;;;;;;18.96;60.33;101889.22;2313232;76;50210;-77
2022/10/11 10:40:12;;;;;;;;;;;;;;;18.96;60.37;101901.29;2335038;76;50834;-76
2022/10/11 10:43:17;;;;;;;;;;;;;;;18.96;60.26;101890.56;2381662;74;50412;-77
2022/10/11 10:46:23;;;;;;;;;;;;;;;18.95;60.26;101901.80;2405068;73;51386;-77
2022/10/11 10:49:25;;;;;;;;;;;;;;;18.97;60.25;101906.52;2354836;75;52512;-76
2022/10/11 10:52:35;;;;;;;;;;;;;;;18.98;60.22;101903.33;2371589;75;50344;-77
2022/10/11 10:55:41;;;;;;;;;;;;;;;18.99;60.17;101899.66;2379062;74;50803;-77
2022/10/11 10:58:44;;;;;;;;;;;;;;;18.98;60.23;101908.69;2366744;74;50847;-77
2022/10/11 11:01:50;;;;;;;;;;;;;;;18.93;60.19;101901.10;2379383;74;51019;-77
2022/10/11 11:05:05;;;;;;;;;;;;;;;18.95;60.20;101895.59;2417410;73;51533;-76
2022/10/11 11:08:11;;;;;;;;;;;;;;;18.98;60.17;101903.33;2434473;73;51587;-78
2022/10/11 11:11:27;;;;;;;;;;;;;;;18.97;60.16;101905.17;2371867;73;50459;-77
2022/10/11 11:14:33;;;;;;;;;;;;;;;18.98;60.11;101901.98;2362010;75;52719;-75
2022/10/11 11:17:53;;;;;;;;;;;;;;;18.95;60.16;101904.48;2391653;74;50281;-77
2022/10/11 11:20:56;;;;;;;;;;;;;;;18.96;60.06;101906.66;2407217;74;50662;-77
2022/10/11 11:24:05;;;;;;;;;;;;;;;18.96;60.06;101899.48;2406468;74;51602;-77
2022/10/11 11:27:18;;;;;;;;;;;;;;;18.93;60.14;101904.66;2362313;74;50990;-76
2022/10/11 11:30:23;;;;;;;;;;;;;;;18.94;60.10;101900.12;2398854;73;50408;-76
2022/10/11 11:33:29;;;;;;;;;;;;;;;18.90;60.14;101896.89;2386206;74;51509;-76
2022/10/11 11:36:49;;;;;;;;;;;;;;;18.91;60.09;101902.62;2386537;74;50828;-76
2022/10/11 11:39:55;;;;;;;;;;;;;;;18.91;60.09;101894.57;2353546;74;49637;-77
2022/10/11 11:43:01;;;;;;;;;;;;;;;18.91;60.14;101894.57;2353447;74;51797;-77
2022/10/11 11:46:05;;;;;;;;;;;;;;;18.90;60.13;101899.57;2386482;74;50819;-76
2022/10/11 11:49:08;;;;;;;;;;;;;;;18.90;60.09;101898.23;2386427;74;51526;-77
2022/10/11 11:52:11;;;;;;;;;;;;;;;18.96;59.98;101889.22;2386042;74;51563;-75
2022/10/11 11:55:14;;;;;;;;;;;;;;;18.98;59.92;101892.59;2381437;74;51502;-76
2022/10/11 11:58:34;;;;;;;;;;;;;;;18.99;59.97;101885.75;2385633;74;51526;-76
2022/10/11 12:01:44;;;;;;;;;;;;;;;18.96;59.98;101887.87;2384945;74;50785;-76
2022/10/11 12:04:47;;;;;;;;;;;;;;;18.99;59.85;101887.59;2352804;74;51720;-76
2022/10/11 12:07:50;;;;;;;;;;;;;;;19.00;59.76;101878.53;2386886;74;51613;-75
2022/10/11 12:10:55;;;;;;;;;;;;;;;19.02;59.75;101880.06;2386885;73;50779;-75
2022/10/11 12:13:58;;;;;;;;;;;;;;;18.99;59.82;101875.52;2386645;74;51570;-75
2022/10/11 12:17:13;;;;;;;;;;;;;;;18.96;59.92;101871.78;2354085;74;50120;-75
2022/10/11 12:20:16;;;;;;;;;;;;;;;18.93;60.00;101875.15;2388987;74;50693;-75
2022/10/11 12:23:22;;;;;;;;;;;;;;;18.97;59.99;101880.20;2389696;74;50878;-75
2022/10/11 12:26:25;;;;;;;;;;;;;;;18.96;60.01;101871.31;2380491;73;51715;-76
2022/10/11 12:29:43;;;;;;;;;;;;;;;18.99;59.98;101878.20;2354353;75;52527;-75
2022/10/11 12:32:47;;;;;;;;;;;;;;;18.97;60.01;101877.52;2356442;75;50297;-75
2022/10/11 12:35:56;;;;;;;;;;;;;;;18.96;60.07;101886.54;2383047;75;50668;-75
2022/10/11 12:39:14;;;;;;;;;;;;;;;18.90;60.34;101879.96;2379415;75;50783;-76
2022/10/11 12:42:20;;;;;;;;;;;;;;;18.85;60.70;101882.27;2278657;77;51788;-75
2022/10/11 12:45:23;;;;;;;;;;;;;;;18.85;60.80;101876.91;2325053;75;51815;-75
2022/10/11 12:48:32;;;;;;;;;;;;;;;18.84;60.84;101881.43;2381214;75;50384;-76
2022/10/11 12:51:36;;;;;;;;;;;;;;;18.81;61.25;101880.41;2381592;75;50880;-75
2022/10/11 12:54:39;;;;;;;;;;;;;;;18.82;61.33;101887.94;2376789;74;50280;-76
2022/10/11 12:57:59;;;;;;;;;;;;;;;18.82;61.19;101887.44;2386572;74;50522;-75
2022/10/11 13:01:02;;;;;;;;;;;;;;;18.82;60.88;101874.53;2387405;74;50277;-76
2022/10/11 13:04:08;;;;;;;;;;;;;;;18.82;61.01;101875.88;2378585;75;50397;-75
2022/10/11 13:07:11;;;;;;;;;;;;;;;18.86;60.83;101878.61;2355466;75;52654;-76
2022/10/11 13:10:14;;;;;;;;;;;;;;;18.84;60.83;101877.41;2378602;75;51013;-76
2022/10/11 13:13:17;;;;;;;;;;;;;;;18.85;60.87;101879.08;2378523;75;50244;-76
2022/10/11 13:16:20;;;;;;;;;;;;;;;18.83;61.02;101878.41;2378729;75;51545;-77
2022/10/11 13:19:22;;;;;;;;;;;;;;;18.82;61.02;101871.34;2336594;75;50970;-77
2022/10/11 13:22:24;;;;;;;;;;;;;;;18.79;61.14;101887.75;2355465;75;51670;-76
2022/10/11 13:25:33;;;;;;;;;;;;;;;18.79;61.20;101881.55;2367183;75;51514;-77
2022/10/11 13:28:35;;;;;;;;;;;;;;;18.78;61.09;101883.40;2384380;74;50785;-76
2022/10/11 13:31:36;;;;;;;;;;;;;;;18.78;61.13;101882.06;2377037;74;50938;-76
2022/10/11 13:34:38;;;;;;;;;;;;;;;18.78;61.09;101886.08;2376911;74;51477;-75
2022/10/11 13:37:42;;;;;;;;;;;;;;;18.78;61.07;101884.73;2397828;73;50698;-76
2022/10/11 13:40:43;;;;;;;;;;;;;;;18.77;61.12;101887.56;2397898;74;51521;-76
2022/10/11 13:43:45;;;;;;;;;;;;;;;18.77;61.12;101880.36;2377006;74;50981;-77
2022/10/11 13:46:46;;;;;;;;;;;;;;;18.82;60.97;101888.78;2397948;74;50328;-77
2022/10/11 13:49:52;;;;;;;;;;;;;;;18.77;61.05;101880.36;2397893;74;50348;-77
2022/10/11 13:53:09;;;;;;;;;;;;;;;18.77;61.20;101879.02;2398159;74;22497;-77
2022/10/11 13:56:11;;;;;;;;;;;;;;;18.77;61.15;101884.37;2368103;74;51362;-77
2022/10/11 13:59:17;;;;;;;;;;;;;;;18.83;60.90;101883.78;2394572;74;51541;-77
2022/10/11 14:02:20;;;;;;;;;;;;;;;18.84;61.05;101881.94;2397873;74;51544;-77
2022/10/11 14:05:23;;;;;;;;;;;;;;;18.80;61.19;101878.70;2397705;74;50404;-77
2022/10/11 14:08:38;;;;;;;;;;;;;;;18.81;61.25;101872.86;2377195;74;49572;-75
2022/10/11 14:11:39;;;;;;;;;;;;;;;18.79;61.29;101874.85;2398138;74;50872;-74
2022/10/11 14:14:41;;;;;;;;;;;;;;;18.82;61.13;101876.72;2377086;74;51523;-75
2022/10/11 14:17:44;;;;;;;;;;;;;;;18.81;61.30;101880.41;2397897;74;51492;-76
2022/10/11 14:20:45;;;;;;;;;;;;;;;18.80;61.26;101887.25;2349673;74;49612;-75
2022/10/11 14:23:48;;;;;;;;;;;;;;;18.82;61.27;101882.08;2376752;74;50706;-74
2022/10/11 14:26:51;;;;;;;;;;;;;;;18.84;61.48;101874.73;2392161;74;50763;-74
2022/10/11 14:29:53;;;;;;;;;;;;;;;18.83;61.29;101879.76;2397256;73;50288;-75
2022/10/11 14:32:55;;;;;;;;;;;;;;;18.87;61.35;101876.25;2350413;74;52554;-75
2022/10/11 14:35:57;;;;;;;;;;;;;;;18.88;61.67;101884.16;2398237;74;50075;-74
2022/10/11 14:38:59;;;;;;;;;;;;;;;18.87;61.71;101882.95;2387710;73;50446;-75
2022/10/11 14:42:00;;;;;;;;;;;;;;;18.89;61.85;101883.15;2361475;74;52227;-73
2022/10/11 14:45:02;;;;;;;;;;;;;;;18.91;61.79;101877.64;2374646;74;51772;-72
2022/10/11 14:48:03;;;;;;;;;;;;;;;18.85;61.95;101875.56;2375078;74;50699;-74
2022/10/11 14:51:05;;;;;;;;;;;;;;;18.81;62.42;101878.23;2340977;76;50598;-72
2022/10/11 14:54:07;;;;;;;;;;;;;;;18.85;62.12;101876.39;2337611;76;50726;-70
2022/10/11 14:57:10;;;;;;;;;;;;;;;18.83;62.31;101874.39;2355662;74;51361;-72
2022/10/11 15:00:13;;;;;;;;;;;;;;;18.85;62.32;101884.44;2350365;74;51546;-72
2022/10/11 15:03:15;;;;;;;;;;;;;;;18.91;62.25;101879.81;2378660;75;50799;-74
2022/10/11 15:06:18;;;;;;;;;;;;;;;18.90;62.31;101883.98;2378679;75;51479;-72
2022/10/11 15:09:20;;;;;;;;;;;;;;;18.84;62.61;101882.77;2380284;74;50908;-72
2022/10/11 15:12:21;;;;;;;;;;;;;;;18.82;62.80;101885.27;2378754;75;50364;-72
2022/10/11 15:15:24;;;;;;;;;;;;;;;18.86;62.49;101883.46;2355451;75;50665;-72
2022/10/11 15:18:25;;;;;;;;;;;;;;;18.84;62.75;101880.59;2378801;75;50392;-71
2022/10/11 15:21:27;;;;;;;;;;;;;;;18.83;63.01;101885.59;2354874;74;51499;-71
2022/10/11 15:24:28;;;;;;;;;;;;;;;18.82;63.45;101884.76;2359362;73;51440;-72
2022/10/11 15:27:30;;;;;;;;;;;;;;;18.88;63.14;101878.80;2371051;74;50548;-72
2022/10/11 15:30:33;;;;;;;;;;;;;;;18.89;63.47;101884.48;2373232;74;52461;-71
2022/10/11 15:33:35;;;;;;;;;;;;;;;18.88;63.30;101876.11;2373659;74;51526;-74
2022/10/11 15:36:37;;;;;;;;;;;;;;;18.89;64.41;101877.78;2375097;74;51584;-74
2022/10/11 15:39:38;;;;;;;;;;;;;;;18.87;64.53;101879.77;2389826;73;51470;-75
2022/10/11 15:42:40;;;;;;;;;;;;;;;18.86;64.43;101878.61;2378472;75;50718;-75